首页
METAR-TAF:

METAR-TAF

机场 :

Hohenfels, 德国

纬度: 49-13N, 经度: 011-50E, 海拔: 442米

当前天气观测

该预报发布于27分钟前的13:06 UTC
风速3节,风向西转西南
温度 12°C
湿度 62%
气压 1012 hPa
能见度10公里或以上
散云层高于2800英尺
多云层高于3600英尺
阴天层高于4700英尺

METAR: ETIH 281306Z AUTO 24003KT 9999 SCT028 BKN036 OVC047 12/05 A2988 RMK AO2 SLP129 $

时间: 15:33 (13:33 UTC)


TAF: 丢失

超过4000个机场的气象观测和天气预报(METAR&TAF报告)。

可查询的气象台以黄色和红色小点在地图上表示。

将鼠标移到小点上方,可查看气象台名称。

然后点击查看天气观测和预报。

如需切换地图:点击带黑十字的绿色按钮放大地图;点击带横线的绿色按钮缩小地图;或者点击绿色箭头查看邻近地区的地图。


METAR-TAF: